Time;durP1;ratioP1;P1;durP2;ratioP2;P2;SDS_P1;SDS_P2;PMS_P1;PMS_P2;Temp;Humidity;BMP_temperature;BMP_pressure;BME280_temperature;BME280_humidity;BME280_pressure;Samples;Min_cycle;Max_cycle;Signal;HPM_P1;HPM_P2
2021/10/05 00:00:13;;;;;;;10.40;3.33;;;;;;;;;;143734;579;45023;-85
2021/10/05 00:02:48;;;;;;;6.03;3.28;;;;;;;;;;143732;652;46012;-85
2021/10/05 00:05:34;;;;;;;4.60;2.85;;;;;;;;;;143736;674;46015;-84
2021/10/05 00:08:08;;;;;;;7.00;3.15;;;;;;;;;;143735;574;46020;-86
2021/10/05 00:10:44;;;;;;;5.93;2.90;;;;;;;;;;143733;565;47018;-84
2021/10/05 00:13:14;;;;;;;3.55;2.75;;;;;;;;;;143734;565;46012;-84
2021/10/05 00:15:44;;;;;;;4.10;2.87;;;;;;;;;;143734;571;47019;-85
2021/10/05 00:18:24;;;;;;;5.35;3.58;;;;;;;;;;143735;584;46020;-84
2021/10/05 00:21:07;;;;;;;9.55;3.00;;;;;;;;;;143735;586;45912;-84
2021/10/05 00:23:46;;;;;;;5.03;2.85;;;;;;;;;;143734;645;45023;-84
2021/10/05 00:26:17;;;;;;;6.07;3.00;;;;;;;;;;143735;605;46018;-84
2021/10/05 00:28:50;;;;;;;7.22;2.92;;;;;;;;;;143737;573;46012;-83
2021/10/05 00:31:20;;;;;;;4.70;3.08;;;;;;;;;;143730;645;47032;-85
2021/10/05 00:34:02;;;;;;;9.55;3.20;;;;;;;;;;143731;577;46012;-85
2021/10/05 00:36:30;;;;;;;7.05;3.30;;;;;;;;;;143733;564;47019;-85
2021/10/05 00:39:17;;;;;;;6.37;3.40;;;;;;;;;;143735;585;46012;-84
2021/10/05 00:41:50;;;;;;;5.00;3.08;;;;;;;;;;143734;617;46038;-84
2021/10/05 00:44:32;;;;;;;4.90;4.20;;;;;;;;;;143733;614;46023;-84
2021/10/05 00:47:07;;;;;;;5.85;3.37;;;;;;;;;;143729;571;47018;-83
2021/10/05 00:49:41;;;;;;;7.80;3.78;;;;;;;;;;143736;686;46020;-85
2021/10/05 00:52:14;;;;;;;9.02;3.85;;;;;;;;;;143731;575;47021;-85
2021/10/05 00:54:45;;;;;;;6.75;3.83;;;;;;;;;;143731;566;46012;-85
2021/10/05 00:57:19;;;;;;;8.05;4.20;;;;;;;;;;143734;570;46018;-84
2021/10/05 00:59:48;;;;;;;4.68;3.85;;;;;;;;;;143733;587;46013;-84
2021/10/05 01:02:42;;;;;;;7.53;4.75;;;;;;;;;;143733;606;46016;-86
2021/10/05 01:05:19;;;;;;;6.75;3.60;;;;;;;;;;143733;588;46022;-86
2021/10/05 01:07:51;;;;;;;8.00;4.43;;;;;;;;;;143733;570;46019;-84
2021/10/05 01:10:23;;;;;;;5.65;3.58;;;;;;;;;;143737;614;46022;-85
2021/10/05 01:12:55;;;;;;;5.15;4.10;;;;;;;;;;143730;574;46914;-85
2021/10/05 01:15:29;;;;;;;5.30;3.58;;;;;;;;;;143731;582;46022;-85
2021/10/05 01:18:06;;;;;;;;;;;;;;;;;;;;;
2021/10/05 01:21:10;;;;;;;4.65;3.35;;;;;;;;;;143734;583;47021;-85
2021/10/05 01:23:38;;;;;;;8.52;3.62;;;;;;;;;;143733;594;46014;-85
2021/10/05 01:26:26;;;;;;;6.53;3.47;;;;;;;;;;143733;592;46012;-85
2021/10/05 01:29:02;;;;;;;6.32;3.87;;;;;;;;;;143735;577;46019;-85
2021/10/05 01:31:46;;;;;;;4.78;3.30;;;;;;;;;;143735;571;46012;-84
2021/10/05 01:34:15;;;;;;;5.57;3.70;;;;;;;;;;143730;602;47018;-84
2021/10/05 01:36:51;;;;;;;4.78;3.37;;;;;;;;;;143733;566;46023;-84
2021/10/05 01:39:38;;;;;;;4.97;3.30;;;;;;;;;;143737;570;45018;-84
2021/10/05 01:42:12;;;;;;;4.37;3.78;;;;;;;;;;143736;586;46012;-85
2021/10/05 01:44:44;;;;;;;4.50;3.42;;;;;;;;;;143733;564;46021;-85
2021/10/05 01:47:12;;;;;;;4.47;3.15;;;;;;;;;;143732;600;46917;-85
2021/10/05 01:49:43;;;;;;;3.72;2.97;;;;;;;;;;143735;585;46018;-85
2021/10/05 01:52:09;;;;;;;4.62;3.30;;;;;;;;;;143735;695;46023;-85
2021/10/05 01:54:41;;;;;;;4.68;3.97;;;;;;;;;;143732;564;47018;-85
2021/10/05 01:57:21;;;;;;;11.45;3.80;;;;;;;;;;143732;585;46012;-85
2021/10/05 01:59:48;;;;;;;5.65;3.67;;;;;;;;;;143733;591;47019;-85
2021/10/05 02:02:24;;;;;;;6.75;3.92;;;;;;;;;;143735;564;47020;-84
2021/10/05 02:04:56;;;;;;;8.82;4.15;;;;;;;;;;143731;604;47020;-85
2021/10/05 02:07:36;;;;;;;6.03;4.62;;;;;;;;;;143733;768;46012;-83
2021/10/05 02:10:13;;;;;;;5.18;4.10;;;;;;;;;;143739;567;46018;-82
2021/10/05 02:12:44;;;;;;;9.10;3.85;;;;;;;;;;143735;594;46013;-84
2021/10/05 02:15:12;;;;;;;5.85;3.83;;;;;;;;;;143735;597;46016;-79
2021/10/05 02:17:40;;;;;;;6.12;4.20;;;;;;;;;;143734;622;46022;-81
2021/10/05 02:20:10;;;;;;;5.07;3.70;;;;;;;;;;143736;579;46018;-85
2021/10/05 02:22:48;;;;;;;14.07;5.22;;;;;;;;;;143735;593;46022;-86
2021/10/05 02:25:21;;;;;;;5.07;3.37;;;;;;;;;;143733;646;47020;-86
2021/10/05 02:27:49;;;;;;;5.05;3.75;;;;;;;;;;143730;591;47015;-84
2021/10/05 02:30:20;;;;;;;7.53;3.67;;;;;;;;;;143736;569;46027;-85
2021/10/05 02:32:48;;;;;;;5.75;4.22;;;;;;;;;;143739;577;47022;-86
2021/10/05 02:35:18;;;;;;;6.25;3.60;;;;;;;;;;143734;588;47018;-85
2021/10/05 02:37:59;;;;;;;7.68;4.18;;;;;;;;;;143733;573;46022;-84
2021/10/05 02:40:28;;;;;;;3.87;3.25;;;;;;;;;;143735;676;46014;-84
2021/10/05 02:43:17;;;;;;;;;;;;;;;;;;;;;
2021/10/05 02:45:58;;;;;;;5.35;4.10;;;;;;;;;;143733;634;46014;-84
2021/10/05 02:48:31;;;;;;;10.25;7.10;;;;;;;;;;143733;594;46012;-86
2021/10/05 02:51:11;;;;;;;13.27;7.47;;;;;;;;;;143733;577;47016;-84
2021/10/05 02:54:08;;;;;;;11.52;6.03;;;;;;;;;;143735;599;46012;-85
2021/10/05 02:57:00;;;;;;;9.00;5.70;;;;;;;;;;143733;616;47018;-85
2021/10/05 02:59:38;;;;;;;13.15;6.35;;;;;;;;;;143735;593;46022;-84
2021/10/05 03:02:11;;;;;;;8.75;6.37;;;;;;;;;;143734;587;47018;-83
2021/10/05 03:04:38;;;;;;;12.18;5.80;;;;;;;;;;143735;664;47023;-83
2021/10/05 03:07:18;;;;;;;9.07;5.20;;;;;;;;;;143736;575;46014;-85
2021/10/05 03:09:45;;;;;;;8.30;5.15;;;;;;;;;;143733;602;46012;-85
2021/10/05 03:12:15;;;;;;;9.93;5.07;;;;;;;;;;143733;602;47019;-84
2021/10/05 03:14:41;;;;;;;11.12;4.53;;;;;;;;;;143737;569;46012;-85
2021/10/05 03:17:08;;;;;;;5.78;3.50;;;;;;;;;;143732;564;47020;-86
2021/10/05 03:19:35;;;;;;;5.32;4.18;;;;;;;;;;143732;589;46013;-85
2021/10/05 03:22:05;;;;;;;6.10;4.05;;;;;;;;;;143733;585;47019;-84
2021/10/05 03:24:32;;;;;;;6.35;4.00;;;;;;;;;;143738;595;46022;-85
2021/10/05 03:26:59;;;;;;;7.95;4.37;;;;;;;;;;143733;624;47018;-84
2021/10/05 03:29:26;;;;;;;6.90;4.65;;;;;;;;;;143735;662;47022;-84
2021/10/05 03:31:52;;;;;;;8.35;4.05;;;;;;;;;;143735;592;46018;-83
2021/10/05 03:34:19;;;;;;;4.55;3.67;;;;;;;;;;143736;600;46013;-83
2021/10/05 03:36:47;;;;;;;5.45;4.57;;;;;;;;;;143738;616;47018;-84
2021/10/05 03:39:14;;;;;;;5.60;3.87;;;;;;;;;;143736;607;46012;-83
2021/10/05 03:41:41;;;;;;;7.05;4.25;;;;;;;;;;143733;580;47018;-84
2021/10/05 03:44:07;;;;;;;7.72;4.15;;;;;;;;;;143737;607;46023;-84
2021/10/05 03:46:36;;;;;;;6.62;4.00;;;;;;;;;;143736;708;46020;-85
2021/10/05 03:49:04;;;;;;;5.70;4.70;;;;;;;;;;143734;624;46023;-86
2021/10/05 03:51:31;;;;;;;8.75;4.87;;;;;;;;;;143736;576;46019;-84
2021/10/05 03:53:58;;;;;;;9.13;4.25;;;;;;;;;;143736;604;46020;-85
2021/10/05 03:56:27;;;;;;;10.70;4.55;;;;;;;;;;143733;638;47020;-84
2021/10/05 03:58:54;;;;;;;8.15;4.00;;;;;;;;;;143733;571;46037;-85
2021/10/05 04:01:21;;;;;;;12.48;4.93;;;;;;;;;;143737;640;46018;-85
2021/10/05 04:03:50;;;;;;;8.00;4.70;;;;;;;;;;143737;596;46013;-84
2021/10/05 04:06:23;;;;;;;6.70;4.40;;;;;;;;;;143731;591;47021;-84
2021/10/05 04:08:49;;;;;;;5.50;4.70;;;;;;;;;;143734;600;46012;-85
2021/10/05 04:11:16;;;;;;;7.75;4.80;;;;;;;;;;143735;573;47018;-85
2021/10/05 04:13:43;;;;;;;6.12;4.15;;;;;;;;;;143735;697;47012;-85
2021/10/05 04:16:10;;;;;;;12.93;4.75;;;;;;;;;;143736;591;46020;-86
2021/10/05 04:18:37;;;;;;;11.65;4.93;;;;;;;;;;143733;601;46012;-84
2021/10/05 04:21:05;;;;;;;9.32;4.82;;;;;;;;;;143735;589;47019;-84
2021/10/05 04:23:32;;;;;;;15.60;4.47;;;;;;;;;;143736;602;46012;-86
2021/10/05 04:25:58;;;;;;;6.85;4.75;;;;;;;;;;143733;595;47020;-84
2021/10/05 04:28:25;;;;;;;5.97;4.50;;;;;;;;;;143736;589;46012;-84
2021/10/05 04:30:52;;;;;;;8.05;4.22;;;;;;;;;;143734;729;46018;-85
2021/10/05 04:33:21;;;;;;;12.80;4.45;;;;;;;;;;143736;599;46012;-83
2021/10/05 04:35:49;;;;;;;7.03;4.40;;;;;;;;;;143733;619;47018;-85
2021/10/05 04:38:16;;;;;;;10.43;4.40;;;;;;;;;;143734;597;46012;-84
2021/10/05 04:40:43;;;;;;;11.10;4.03;;;;;;;;;;143736;592;46018;-85
2021/10/05 04:43:10;;;;;;;10.48;5.10;;;;;;;;;;143736;586;46012;-84
2021/10/05 04:45:37;;;;;;;7.37;4.57;;;;;;;;;;143734;587;47020;-84
2021/10/05 04:48:13;;;;;;;7.80;4.62;;;;;;;;;;143732;666;46015;-84
2021/10/05 04:50:44;;;;;;;7.03;4.87;;;;;;;;;;143734;597;47019;-84
2021/10/05 04:53:15;;;;;;;11.23;5.45;;;;;;;;;;143737;643;46012;-83
2021/10/05 04:55:44;;;;;;;5.15;4.10;;;;;;;;;;143734;619;47018;-84
2021/10/05 04:58:12;;;;;;;9.00;4.90;;;;;;;;;;143734;566;46012;-83
2021/10/05 05:00:40;;;;;;;12.65;5.03;;;;;;;;;;143736;571;46018;-83
2021/10/05 05:03:07;;;;;;;10.43;5.57;;;;;;;;;;143737;563;46013;-83
2021/10/05 05:05:33;;;;;;;12.10;5.03;;;;;;;;;;143735;586;46049;-83
2021/10/05 05:08:01;;;;;;;7.65;4.97;;;;;;;;;;143734;651;46022;-85
2021/10/05 05:10:29;;;;;;;19.67;5.47;;;;;;;;;;143734;581;47018;-84
2021/10/05 05:12:56;;;;;;;12.90;5.72;;;;;;;;;;143737;619;46023;-84
2021/10/05 05:15:23;;;;;;;10.45;5.28;;;;;;;;;;143735;571;46020;-85
2021/10/05 05:17:52;;;;;;;10.02;5.25;;;;;;;;;;143733;578;46022;-84
2021/10/05 05:20:19;;;;;;;11.18;5.47;;;;;;;;;;143735;565;46019;-84
2021/10/05 05:22:47;;;;;;;13.05;5.30;;;;;;;;;;143736;591;47012;-85
2021/10/05 05:25:14;;;;;;;12.20;5.97;;;;;;;;;;143736;607;46018;-84
2021/10/05 05:27:44;;;;;;;16.08;6.57;;;;;;;;;;143734;589;46013;-84
2021/10/05 05:30:11;;;;;;;15.50;5.90;;;;;;;;;;143736;603;47018;-85
2021/10/05 05:32:38;;;;;;;13.48;6.05;;;;;;;;;;143736;606;46012;-83
2021/10/05 05:35:06;;;;;;;19.70;6.50;;;;;;;;;;143734;587;47020;-84
2021/10/05 05:37:33;;;;;;;13.18;5.43;;;;;;;;;;143735;566;45920;-84
2021/10/05 05:40:19;;;;;;;20.08;5.93;;;;;;;;;;143739;641;46018;-85
2021/10/05 05:42:46;;;;;;;17.55;4.78;;;;;;;;;;143737;570;47020;-85
2021/10/05 05:45:13;;;;;;;9.30;4.65;;;;;;;;;;143735;576;46014;-84
2021/10/05 05:47:50;;;;;;;12.60;4.40;;;;;;;;;;143734;615;46012;-85
2021/10/05 05:50:17;;;;;;;9.60;3.95;;;;;;;;;;143735;605;46014;-84
2021/10/05 05:52:45;;;;;;;14.10;3.97;;;;;;;;;;143736;575;46012;-84
2021/10/05 05:55:23;;;;;;;7.62;4.07;;;;;;;;;;143733;599;46018;-84
2021/10/05 05:58:11;;;;;;;14.80;4.62;;;;;;;;;;143736;637;46023;-84
2021/10/05 06:00:38;;;;;;;20.37;5.22;;;;;;;;;;143734;564;47018;-85
2021/10/05 06:03:13;;;;;;;10.27;4.72;;;;;;;;;;143736;637;46012;-85
2021/10/05 06:05:41;;;;;;;9.57;4.12;;;;;;;;;;143735;674;46018;-83
2021/10/05 06:08:11;;;;;;;9.38;4.75;;;;;;;;;;143735;643;46014;-83
2021/10/05 06:10:38;;;;;;;4.82;3.60;;;;;;;;;;143735;633;46018;-85
2021/10/05 06:13:14;;;;;;;9.27;4.32;;;;;;;;;;143736;611;46012;-83
2021/10/05 06:15:41;;;;;;;10.50;4.43;;;;;;;;;;143734;699;46016;-84
2021/10/05 06:18:09;;;;;;;8.85;3.80;;;;;;;;;;143733;612;46022;-84
2021/10/05 06:20:39;;;;;;;11.15;3.80;;;;;;;;;;143735;664;47018;-84
2021/10/05 06:23:06;;;;;;;17.92;4.28;;;;;;;;;;143737;637;46014;-84
2021/10/05 06:25:45;;;;;;;21.37;6.43;;;;;;;;;;143736;606;46018;-84
2021/10/05 06:28:12;;;;;;;10.85;5.82;;;;;;;;;;143734;598;46012;-83
2021/10/05 06:30:40;;;;;;;18.85;9.00;;;;;;;;;;143734;605;47018;-85
2021/10/05 06:33:07;;;;;;;20.45;8.23;;;;;;;;;;143736;602;46050;-84
2021/10/05 06:35:34;;;;;;;26.52;9.48;;;;;;;;;;143733;638;47021;-84
2021/10/05 06:38:01;;;;;;;25.90;12.15;;;;;;;;;;143734;667;46022;-83
2021/10/05 06:40:34;;;;;;;28.85;12.88;;;;;;;;;;143736;591;46019;-87
2021/10/05 06:43:01;;;;;;;24.90;14.85;;;;;;;;;;143736;664;46012;-85
2021/10/05 06:45:29;;;;;;;30.62;14.23;;;;;;;;;;143733;569;46018;-83
2021/10/05 06:47:56;;;;;;;33.78;15.30;;;;;;;;;;143735;604;46023;-84
2021/10/05 06:50:25;;;;;;;27.17;14.87;;;;;;;;;;143732;635;47019;-83
2021/10/05 06:52:53;;;;;;;27.10;15.13;;;;;;;;;;143736;571;46020;-84
2021/10/05 06:55:22;;;;;;;27.02;13.77;;;;;;;;;;143731;596;47020;-84
2021/10/05 06:57:49;;;;;;;27.62;15.52;;;;;;;;;;143733;636;46920;-85
2021/10/05 07:00:16;;;;;;;40.67;16.00;;;;;;;;;;143735;606;46018;-83
2021/10/05 07:02:48;;;;;;;36.92;16.33;;;;;;;;;;143736;589;46013;-84
2021/10/05 07:05:18;;;;;;;37.55;14.82;;;;;;;;;;143735;571;46021;-84
2021/10/05 07:07:50;;;;;;;38.65;15.18;;;;;;;;;;143732;590;46022;-83
2021/10/05 07:10:20;;;;;;;34.60;15.43;;;;;;;;;;143735;570;46019;-83
2021/10/05 07:12:50;;;;;;;42.85;17.60;;;;;;;;;;143736;591;46020;-83
2021/10/05 07:15:17;;;;;;;38.13;17.05;;;;;;;;;;143734;604;47020;-84
2021/10/05 07:17:44;;;;;;;40.67;17.92;;;;;;;;;;143734;569;46012;-86
2021/10/05 07:20:13;;;;;;;38.97;17.50;;;;;;;;;;143735;614;46046;-84
2021/10/05 07:22:42;;;;;;;29.15;14.00;;;;;;;;;;143736;605;46018;-84
2021/10/05 07:25:10;;;;;;;27.98;13.57;;;;;;;;;;143733;569;47019;-85
2021/10/05 07:27:37;;;;;;;33.47;14.73;;;;;;;;;;143732;586;46012;-85
2021/10/05 07:30:08;;;;;;;32.67;13.50;;;;;;;;;;143734;581;47018;-84
2021/10/05 07:32:35;;;;;;;25.60;12.63;;;;;;;;;;143735;587;47023;-84
2021/10/05 07:35:02;;;;;;;16.73;8.23;;;;;;;;;;143735;583;46044;-85
2021/10/05 07:37:29;;;;;;;26.20;13.73;;;;;;;;;;143732;599;46012;-85
2021/10/05 07:39:57;;;;;;;26.25;10.13;;;;;;;;;;143735;566;47019;-82
2021/10/05 07:42:24;;;;;;;13.52;8.73;;;;;;;;;;143735;564;46012;-83
2021/10/05 07:44:51;;;;;;;27.50;10.43;;;;;;;;;;143733;569;47020;-84
2021/10/05 07:47:18;;;;;;;27.75;10.63;;;;;;;;;;143732;594;46920;-85
2021/10/05 07:49:46;;;;;;;22.52;9.25;;;;;;;;;;143733;576;47019;-84
2021/10/05 07:52:13;;;;;;;14.25;7.00;;;;;;;;;;143735;594;46020;-82
2021/10/05 07:54:41;;;;;;;7.37;4.85;;;;;;;;;;143736;605;46020;-84
2021/10/05 07:57:08;;;;;;;11.77;6.12;;;;;;;;;;143733;571;46012;-84
2021/10/05 07:59:37;;;;;;;12.43;6.15;;;;;;;;;;143736;609;47018;-86
2021/10/05 08:02:04;;;;;;;13.27;5.93;;;;;;;;;;143734;667;47021;-84
2021/10/05 08:04:31;;;;;;;11.52;6.22;;;;;;;;;;143736;578;46021;-84
2021/10/05 08:06:58;;;;;;;13.90;6.18;;;;;;;;;;143734;573;46012;-85
2021/10/05 08:09:25;;;;;;;9.75;6.22;;;;;;;;;;143732;594;47019;-84
2021/10/05 08:11:52;;;;;;;9.90;6.30;;;;;;;;;;143734;564;46023;-85
2021/10/05 08:14:19;;;;;;;8.10;5.20;;;;;;;;;;143731;602;47020;-85
2021/10/05 08:16:47;;;;;;;8.05;5.87;;;;;;;;;;143732;657;46013;-85
2021/10/05 08:19:14;;;;;;;10.00;5.60;;;;;;;;;;143732;652;47018;-83
2021/10/05 08:21:41;;;;;;;6.15;4.72;;;;;;;;;;143735;585;47020;-84
2021/10/05 08:24:09;;;;;;;8.68;4.82;;;;;;;;;;143732;599;47020;-86
2021/10/05 08:26:36;;;;;;;7.20;4.82;;;;;;;;;;143732;564;46012;-84
2021/10/05 08:29:04;;;;;;;11.07;5.22;;;;;;;;;;143733;607;46018;-83
2021/10/05 08:31:31;;;;;;;10.50;4.40;;;;;;;;;;143734;585;46022;-84
2021/10/05 08:33:58;;;;;;;9.63;5.37;;;;;;;;;;143731;599;47018;-80
2021/10/05 08:36:25;;;;;;;9.63;3.72;;;;;;;;;;143731;591;47022;-84
2021/10/05 08:38:52;;;;;;;6.75;3.70;;;;;;;;;;143734;583;46018;-85
2021/10/05 08:41:19;;;;;;;5.70;3.80;;;;;;;;;;143736;587;46012;-84
2021/10/05 08:43:45;;;;;;;7.85;3.65;;;;;;;;;;143733;628;47018;-85
2021/10/05 08:46:12;;;;;;;7.03;3.87;;;;;;;;;;143731;569;46012;-84
2021/10/05 08:48:39;;;;;;;7.45;5.03;;;;;;;;;;143735;602;46018;-85
2021/10/05 08:51:07;;;;;;;5.68;3.50;;;;;;;;;;143732;576;46012;-85
2021/10/05 08:53:38;;;;;;;5.62;3.78;;;;;;;;;;143731;578;47018;-84
2021/10/05 08:56:09;;;;;;;7.43;3.37;;;;;;;;;;143731;624;46013;-83
2021/10/05 08:58:37;;;;;;;10.68;4.28;;;;;;;;;;143736;624;46018;-84
2021/10/05 09:01:13;;;;;;;6.53;3.83;;;;;;;;;;143734;576;46022;-84
2021/10/05 09:03:55;;;;;;;5.90;4.53;;;;;;;;;;143731;610;47021;-83
2021/10/05 09:06:23;;;;;;;9.98;3.62;;;;;;;;;;143732;564;46920;-84
2021/10/05 09:08:55;;;;;;;8.80;3.65;;;;;;;;;;143735;612;46015;-85
2021/10/05 09:11:27;;;;;;;7.62;3.95;;;;;;;;;;143735;659;46023;-84
2021/10/05 09:13:56;;;;;;;11.35;5.35;;;;;;;;;;143730;583;47020;-85
2021/10/05 09:16:29;;;;;;;4.80;3.15;;;;;;;;;;143732;701;46013;-84
2021/10/05 09:19:17;;;;;;;15.23;4.00;;;;;;;;;;143733;829;47018;-85
2021/10/05 09:21:52;;;;;;;8.38;3.58;;;;;;;;;;143734;632;46012;-85
2021/10/05 09:24:32;;;;;;;6.80;3.75;;;;;;;;;;143734;621;47020;-85
2021/10/05 09:27:05;;;;;;;5.03;3.58;;;;;;;;;;143732;570;46012;-85
2021/10/05 09:29:35;;;;;;;9.65;3.80;;;;;;;;;;143734;596;46018;-84
2021/10/05 09:32:10;;;;;;;4.72;3.25;;;;;;;;;;143735;569;46013;-85
2021/10/05 09:34:56;;;;;;;8.93;4.40;;;;;;;;;;143734;662;46020;-85
2021/10/05 09:37:31;;;;;;;9.95;4.00;;;;;;;;;;143732;640;46012;-85
2021/10/05 09:40:06;;;;;;;6.03;3.28;;;;;;;;;;143733;679;47019;-84
2021/10/05 09:42:36;;;;;;;7.75;3.60;;;;;;;;;;143734;631;46012;-85
2021/10/05 09:45:16;;;;;;;4.72;3.30;;;;;;;;;;143731;632;47020;-84
2021/10/05 09:47:49;;;;;;;6.25;3.30;;;;;;;;;;143733;564;46051;-83
2021/10/05 09:50:18;;;;;;;10.98;4.22;;;;;;;;;;143733;638;47018;-82
2021/10/05 09:52:52;;;;;;;6.20;3.22;;;;;;;;;;143734;571;46012;-81
2021/10/05 09:55:21;;;;;;;3.90;3.23;;;;;;;;;;143730;564;47021;-83
2021/10/05 09:57:48;;;;;;;8.63;3.80;;;;;;;;;;143731;569;46012;-83
2021/10/05 10:00:16;;;;;;;12.77;3.58;;;;;;;;;;143734;585;46018;-84
2021/10/05 10:02:49;;;;;;;6.65;3.55;;;;;;;;;;143735;633;46012;-82
2021/10/05 10:05:20;;;;;;;8.32;3.30;;;;;;;;;;143733;590;47018;-84
2021/10/05 10:07:49;;;;;;;7.18;3.65;;;;;;;;;;143734;566;46012;-83
2021/10/05 10:10:23;;;;;;;6.50;3.35;;;;;;;;;;143733;619;47018;-84
2021/10/05 10:12:52;;;;;;;15.30;3.92;;;;;;;;;;143735;744;46012;-83
2021/10/05 10:15:23;;;;;;;5.95;2.97;;;;;;;;;;143733;587;46020;-84
2021/10/05 10:17:49;;;;;;;6.22;3.28;;;;;;;;;;143731;599;47023;-83
2021/10/05 10:20:27;;;;;;;6.65;3.15;;;;;;;;;;143734;591;46020;-83
2021/10/05 10:22:54;;;;;;;7.03;3.40;;;;;;;;;;143734;620;46020;-84
2021/10/05 10:25:27;;;;;;;8.52;3.17;;;;;;;;;;143733;585;46021;-84
2021/10/05 10:27:56;;;;;;;4.53;3.13;;;;;;;;;;143731;686;46012;-83
2021/10/05 10:30:25;;;;;;;5.62;3.30;;;;;;;;;;143735;679;46018;-83
2021/10/05 10:32:59;;;;;;;4.72;2.95;;;;;;;;;;143734;566;47020;-83
2021/10/05 10:35:27;;;;;;;9.15;3.80;;;;;;;;;;143731;587;47018;-84
2021/10/05 10:37:54;;;;;;;8.23;3.25;;;;;;;;;;143731;745;46012;-84
2021/10/05 10:40:36;;;;;;;5.72;3.87;;;;;;;;;;143733;573;46019;-85
2021/10/05 10:43:11;;;;;;;6.12;3.58;;;;;;;;;;143734;624;46012;-84
2021/10/05 10:45:59;;;;;;;6.62;3.80;;;;;;;;;;143731;592;47020;-85
2021/10/05 10:48:37;;;;;;;7.70;3.72;;;;;;;;;;143735;596;46022;-83
2021/10/05 10:51:17;;;;;;;8.70;3.87;;;;;;;;;;143734;640;46018;-81
2021/10/05 10:53:46;;;;;;;12.50;3.67;;;;;;;;;;143733;644;47022;-84
2021/10/05 10:56:37;;;;;;;11.43;4.15;;;;;;;;;;143732;566;47021;-84
2021/10/05 10:59:09;;;;;;;6.97;3.83;;;;;;;;;;143732;644;46012;-83
2021/10/05 11:01:47;;;;;;;7.90;4.22;;;;;;;;;;143734;670;46018;-84
2021/10/05 11:04:16;;;;;;;7.97;3.87;;;;;;;;;;143734;660;46012;-85
2021/10/05 11:06:48;;;;;;;7.18;3.80;;;;;;;;;;143729;568;47020;-83
2021/10/05 11:09:15;;;;;;;5.90;4.18;;;;;;;;;;143732;661;47023;-83
2021/10/05 11:11:57;;;;;;;10.80;3.60;;;;;;;;;;143731;596;47018;-81
2021/10/05 11:14:47;;;;;;;6.60;4.00;;;;;;;;;;143737;730;46012;-84
2021/10/05 11:17:14;;;;;;;8.13;3.67;;;;;;;;;;143733;605;47020;-81
2021/10/05 11:19:42;;;;;;;14.05;4.05;;;;;;;;;;143732;644;46012;-82
2021/10/05 11:22:12;;;;;;;8.63;3.92;;;;;;;;;;143734;638;46018;-84
2021/10/05 11:24:49;;;;;;;12.82;4.25;;;;;;;;;;143735;579;47021;-83
2021/10/05 11:27:19;;;;;;;11.50;4.47;;;;;;;;;;143735;569;46014;-84
2021/10/05 11:29:46;;;;;;;10.52;4.55;;;;;;;;;;143731;570;46022;-82
2021/10/05 11:32:18;;;;;;;6.93;3.90;;;;;;;;;;143734;602;46019;-83
2021/10/05 11:34:46;;;;;;;9.38;3.95;;;;;;;;;;143735;587;46012;-84
2021/10/05 11:37:16;;;;;;;6.05;3.40;;;;;;;;;;143732;566;46018;-83
2021/10/05 11:39:45;;;;;;;12.37;4.25;;;;;;;;;;143733;607;46012;-84
2021/10/05 11:42:25;;;;;;;7.68;4.00;;;;;;;;;;143734;566;46018;-84
2021/10/05 11:45:17;;;;;;;11.30;3.92;;;;;;;;;;143732;580;47022;-83
2021/10/05 11:47:59;;;;;;;8.32;3.92;;;;;;;;;;143732;587;46021;-83
2021/10/05 11:50:38;;;;;;;;;;;;;;;;;;;;;
2021/10/05 11:53:05;;;;;;;5.93;3.83;;;;;;;;;;143747;621;46036;-82
2021/10/05 11:56:03;;;;;;;14.52;3.45;;;;;;;;;;143736;738;46010;-84
2021/10/05 11:58:45;;;;;;;5.65;3.47;;;;;;;;;;143733;579;47022;-83
2021/10/05 12:01:17;;;;;;;6.78;3.45;;;;;;;;;;143733;606;46023;-83
2021/10/05 12:03:46;;;;;;;12.93;4.55;;;;;;;;;;143735;734;46026;-83
2021/10/05 12:06:47;;;;;;;8.07;4.07;;;;;;;;;;143734;630;46010;-83
2021/10/05 12:09:24;;;;;;;6.90;3.80;;;;;;;;;;143731;600;47019;-84
2021/10/05 12:11:52;;;;;;;7.18;3.22;;;;;;;;;;143732;686;46010;-84
2021/10/05 12:14:22;;;;;;;7.30;3.25;;;;;;;;;;143734;606;46018;-85
2021/10/05 12:17:05;;;;;;;7.78;4.00;;;;;;;;;;143733;564;46012;-84
2021/10/05 12:19:36;;;;;;;9.50;4.00;;;;;;;;;;143732;630;46045;-84
2021/10/05 12:22:06;;;;;;;6.22;3.20;;;;;;;;;;143733;588;46010;-84
2021/10/05 12:24:58;;;;;;;7.25;3.75;;;;;;;;;;143733;605;46018;-85
2021/10/05 12:27:43;;;;;;;12.88;4.30;;;;;;;;;;143736;579;47020;-84
2021/10/05 12:30:22;;;;;;;13.18;3.78;;;;;;;;;;143733;643;46022;-85
2021/10/05 12:33:12;;;;;;;9.05;4.03;;;;;;;;;;143733;659;46022;-85
2021/10/05 12:35:40;;;;;;;6.05;3.30;;;;;;;;;;143736;559;46016;-84
2021/10/05 12:38:22;;;;;;;11.35;3.75;;;;;;;;;;143735;667;46011;-84
2021/10/05 12:40:54;;;;;;;7.53;3.47;;;;;;;;;;143732;636;46012;-85
2021/10/05 12:43:39;;;;;;;12.10;3.55;;;;;;;;;;143733;585;46920;-84
2021/10/05 12:46:13;;;;;;;7.07;3.42;;;;;;;;;;143734;582;46019;-84
2021/10/05 12:48:42;;;;;;;14.98;4.03;;;;;;;;;;143735;566;46010;-84
2021/10/05 12:51:17;;;;;;;7.35;3.45;;;;;;;;;;143732;563;47020;-84
2021/10/05 12:53:46;;;;;;;4.95;3.33;;;;;;;;;;143733;581;46010;-84
2021/10/05 12:56:25;;;;;;;7.85;3.60;;;;;;;;;;143734;662;46018;-87
2021/10/05 12:58:53;;;;;;;5.15;3.33;;;;;;;;;;143735;597;46010;-88
2021/10/05 13:01:20;;;;;;;7.68;3.20;;;;;;;;;;143733;633;46019;-86
2021/10/05 13:03:52;;;;;;;5.28;3.35;;;;;;;;;;143732;634;46010;-87
2021/10/05 13:06:18;;;;;;;7.85;3.55;;;;;;;;;;143737;667;46018;-86
2021/10/05 13:08:47;;;;;;;7.20;3.40;;;;;;;;;;143735;585;46010;-85
2021/10/05 13:11:14;;;;;;;8.98;4.12;;;;;;;;;;143732;569;46020;-87
2021/10/05 13:13:41;;;;;;;9.18;3.80;;;;;;;;;;143734;638;46022;-86
2021/10/05 13:16:10;;;;;;;6.95;3.20;;;;;;;;;;143732;634;46013;-83
2021/10/05 13:18:37;;;;;;;8.73;3.28;;;;;;;;;;143735;597;46020;-86
2021/10/05 13:21:03;;;;;;;5.68;3.22;;;;;;;;;;143731;583;47020;-85
2021/10/05 13:23:35;;;;;;;11.90;3.67;;;;;;;;;;143731;749;46011;-86
2021/10/05 13:26:03;;;;;;;6.47;3.10;;;;;;;;;;143733;651;46012;-86
2021/10/05 13:28:31;;;;;;;8.15;3.58;;;;;;;;;;143735;639;46010;-87
2021/10/05 13:30:58;;;;;;;4.28;3.30;;;;;;;;;;143732;629;47021;-85
2021/10/05 13:33:25;;;;;;;6.97;3.20;;;;;;;;;;143729;569;47010;-84
2021/10/05 13:35:53;;;;;;;7.55;3.25;;;;;;;;;;143732;571;47016;-85
2021/10/05 13:38:21;;;;;;;6.40;3.55;;;;;;;;;;143734;626;47020;-82
2021/10/05 13:40:53;;;;;;;4.20;3.40;;;;;;;;;;143731;576;47020;-84
2021/10/05 13:43:23;;;;;;;7.47;3.50;;;;;;;;;;143732;567;46022;-84
2021/10/05 13:45:53;;;;;;;9.05;3.75;;;;;;;;;;143733;663;46019;-84
2021/10/05 13:48:22;;;;;;;10.50;4.55;;;;;;;;;;143734;626;46010;-84
2021/10/05 13:50:55;;;;;;;5.93;3.35;;;;;;;;;;143732;652;47020;-84
2021/10/05 13:53:26;;;;;;;7.62;3.97;;;;;;;;;;143734;687;46023;-85
2021/10/05 13:55:53;;;;;;;7.20;3.30;;;;;;;;;;143731;646;47018;-83
2021/10/05 13:58:19;;;;;;;4.95;3.05;;;;;;;;;;143735;637;46010;-85
2021/10/05 14:00:46;;;;;;;7.07;4.00;;;;;;;;;;143732;567;46020;-85
2021/10/05 14:03:15;;;;;;;6.28;3.62;;;;;;;;;;143732;654;46010;-85
2021/10/05 14:05:42;;;;;;;7.87;3.45;;;;;;;;;;143731;665;47018;-85
2021/10/05 14:08:15;;;;;;;6.82;3.78;;;;;;;;;;143735;582;47023;-83
2021/10/05 14:10:42;;;;;;;5.30;3.55;;;;;;;;;;143731;646;47018;-84
2021/10/05 14:13:13;;;;;;;6.82;3.17;;;;;;;;;;143736;632;45920;-85
2021/10/05 14:15:40;;;;;;;6.22;3.50;;;;;;;;;;143734;605;47016;-84
2021/10/05 14:18:09;;;;;;;7.05;3.80;;;;;;;;;;143734;646;46020;-85
2021/10/05 14:20:36;;;;;;;7.40;3.87;;;;;;;;;;143732;586;47020;-84
2021/10/05 14:23:03;;;;;;;6.87;3.58;;;;;;;;;;143732;578;46011;-84
2021/10/05 14:25:31;;;;;;;10.35;3.67;;;;;;;;;;143736;604;46018;-84
2021/10/05 14:27:58;;;;;;;8.13;3.30;;;;;;;;;;143736;603;47022;-86
2021/10/05 14:30:25;;;;;;;7.37;4.05;;;;;;;;;;143734;618;47019;-84
2021/10/05 14:32:51;;;;;;;11.05;3.92;;;;;;;;;;143732;621;46010;-84
2021/10/05 14:35:19;;;;;;;8.65;3.58;;;;;;;;;;143731;582;47018;-85
2021/10/05 14:37:46;;;;;;;13.18;3.97;;;;;;;;;;143735;599;46020;-85
2021/10/05 14:40:15;;;;;;;8.38;4.47;;;;;;;;;;143734;619;46020;-84
2021/10/05 14:42:43;;;;;;;13.15;3.75;;;;;;;;;;143732;661;47022;-84
2021/10/05 14:45:10;;;;;;;8.98;3.85;;;;;;;;;;143736;627;46019;-83
2021/10/05 14:47:37;;;;;;;14.18;4.03;;;;;;;;;;143736;645;46010;-83
2021/10/05 14:50:04;;;;;;;8.88;4.25;;;;;;;;;;143731;566;47018;-85
2021/10/05 14:52:31;;;;;;;10.93;4.18;;;;;;;;;;143731;588;46012;-84
2021/10/05 14:55:00;;;;;;;21.50;5.93;;;;;;;;;;143733;613;46018;-84
2021/10/05 14:57:28;;;;;;;15.98;4.65;;;;;;;;;;143735;594;46010;-85
2021/10/05 14:59:55;;;;;;;13.80;4.25;;;;;;;;;;143733;609;47020;-85
2021/10/05 15:02:25;;;;;;;6.15;3.85;;;;;;;;;;143734;605;46022;-86
2021/10/05 15:04:52;;;;;;;12.02;5.18;;;;;;;;;;143736;620;46012;-86